createdAt,value
2023-05-03T00:02:16.748Z,11.20
2023-05-03T00:04:46.720Z,11.20
2023-05-03T00:07:14.925Z,11.20
2023-05-03T00:09:42.762Z,11.20
2023-05-03T00:12:10.306Z,11.20
2023-05-03T00:14:37.800Z,11.20
2023-05-03T00:17:05.311Z,11.10
2023-05-03T00:19:33.946Z,11.10
2023-05-03T00:22:01.459Z,11.00
2023-05-03T00:24:28.973Z,11.00
2023-05-03T00:26:56.520Z,11.00
2023-05-03T00:29:24.007Z,10.90
2023-05-03T00:31:51.584Z,10.90
2023-05-03T00:34:19.079Z,10.90
2023-05-03T00:36:46.640Z,10.90
2023-05-03T00:39:14.483Z,10.80
2023-05-03T00:41:42.217Z,10.80
2023-05-03T00:44:09.752Z,10.80
2023-05-03T00:46:37.302Z,10.80
2023-05-03T00:49:04.940Z,10.80
2023-05-03T00:51:33.410Z,10.80
2023-05-03T00:54:01.043Z,10.80
2023-05-03T00:56:33.015Z,10.70
2023-05-03T00:59:06.402Z,10.70
2023-05-03T01:01:34.063Z,10.60
2023-05-03T01:04:03.299Z,10.60
2023-05-03T01:06:44.770Z,10.60
2023-05-03T01:09:26.916Z,10.50
2023-05-03T01:12:09.815Z,10.50
2023-05-03T01:15:18.900Z,10.50
2023-05-03T01:17:51.328Z,10.40
2023-05-03T01:20:26.412Z,10.40
2023-05-03T01:22:59.894Z,10.40
2023-05-03T01:25:27.570Z,10.40
2023-05-03T01:27:55.123Z,10.40
2023-05-03T01:30:26.572Z,10.30
2023-05-03T01:33:14.113Z,10.30
2023-05-03T01:36:11.656Z,10.30
2023-05-03T01:38:39.596Z,10.30
2023-05-03T01:41:11.977Z,10.20
2023-05-03T01:43:41.571Z,10.20
2023-05-03T01:46:09.138Z,10.20
2023-05-03T01:48:36.804Z,10.10
2023-05-03T01:51:04.369Z,10.10
2023-05-03T01:53:32.074Z,10.10
2023-05-03T01:55:59.611Z,10.00
2023-05-03T01:58:27.156Z,10.00
2023-05-03T02:00:55.129Z,10.00
2023-05-03T02:03:22.889Z,10.00
2023-05-03T02:05:50.478Z,9.90
2023-05-03T02:08:17.982Z,9.90
2023-05-03T02:10:45.641Z,9.90
2023-05-03T02:13:13.368Z,9.90
2023-05-03T02:15:41.644Z,9.90
2023-05-03T02:18:09.908Z,9.80
2023-05-03T02:20:38.385Z,9.80
2023-05-03T02:23:06.143Z,9.70
2023-05-03T02:25:33.674Z,9.70
2023-05-03T02:28:01.425Z,9.70
2023-05-03T02:30:29.133Z,9.70
2023-05-03T02:32:56.696Z,9.70
2023-05-03T02:35:24.226Z,9.60
2023-05-03T02:37:53.108Z,9.60
2023-05-03T02:40:20.654Z,9.60
2023-05-03T02:42:48.154Z,9.50
2023-05-03T02:45:15.755Z,9.50
2023-05-03T02:47:43.377Z,9.50
2023-05-03T02:50:11.407Z,9.50
2023-05-03T02:52:38.944Z,9.50
2023-05-03T02:55:06.956Z,9.40
2023-05-03T02:57:34.562Z,9.40
2023-05-03T03:00:02.413Z,9.40
2023-05-03T03:02:30.279Z,9.40
2023-05-03T03:04:57.912Z,9.40
2023-05-03T03:07:25.446Z,9.40
2023-05-03T03:09:52.923Z,9.30
2023-05-03T03:12:20.485Z,9.30
2023-05-03T03:14:47.976Z,9.30
2023-05-03T03:17:15.484Z,9.30
2023-05-03T03:19:43.062Z,9.20
2023-05-03T03:22:10.650Z,9.20
2023-05-03T03:24:38.417Z,9.20
2023-05-03T03:27:06.081Z,9.20
2023-05-03T03:29:34.446Z,9.20
2023-05-03T03:32:02.061Z,9.10
2023-05-03T03:34:29.744Z,9.10
2023-05-03T03:36:57.251Z,9.10
2023-05-03T03:39:24.776Z,9.10
2023-05-03T03:41:52.440Z,9.00
2023-05-03T03:44:20.153Z,8.50
2023-05-03T03:46:47.636Z,8.70
2023-05-03T03:49:15.162Z,8.80
2023-05-03T03:51:42.686Z,8.80
2023-05-03T03:54:10.268Z,8.80
2023-05-03T03:56:37.770Z,8.80
2023-05-03T03:59:05.332Z,8.80
2023-05-03T04:01:32.802Z,8.80
2023-05-03T04:04:00.439Z,8.80
2023-05-03T04:06:29.154Z,8.80
2023-05-03T04:08:56.755Z,8.80
2023-05-03T04:11:24.270Z,8.80
2023-05-03T04:13:52.013Z,8.70
2023-05-03T04:16:19.783Z,8.70
2023-05-03T04:18:47.629Z,8.70
2023-05-03T04:21:15.138Z,8.70
2023-05-03T04:23:42.869Z,8.70
2023-05-03T04:26:23.504Z,8.60
2023-05-03T04:28:58.464Z,8.60
2023-05-03T04:31:27.198Z,8.60
2023-05-03T04:33:54.838Z,8.60
2023-05-03T04:36:26.043Z,8.60
2023-05-03T04:38:53.601Z,8.50
2023-05-03T04:41:21.254Z,8.50
2023-05-03T04:43:48.784Z,8.50
2023-05-03T04:46:17.117Z,8.50
2023-05-03T04:48:46.283Z,8.50
2023-05-03T04:51:13.808Z,8.50
2023-05-03T04:53:41.447Z,8.50
2023-05-03T04:56:09.055Z,8.50
2023-05-03T04:58:37.285Z,8.50
2023-05-03T05:01:04.906Z,8.50
2023-05-03T05:03:32.540Z,8.50
2023-05-03T05:06:00.444Z,8.50
2023-05-03T05:08:28.049Z,8.50
2023-05-03T05:10:56.281Z,8.50
2023-05-03T05:13:23.782Z,8.50
2023-05-03T05:15:51.313Z,8.50
2023-05-03T05:18:18.897Z,8.40
2023-05-03T05:20:46.909Z,8.40
2023-05-03T05:23:14.478Z,8.40
2023-05-03T05:25:45.696Z,8.40
2023-05-03T05:28:13.233Z,8.40
2023-05-03T05:30:40.784Z,8.40
2023-05-03T05:33:08.339Z,8.40
2023-05-03T05:35:36.057Z,8.40
2023-05-03T05:38:03.563Z,8.40
2023-05-03T05:40:31.099Z,8.40
2023-05-03T05:42:58.642Z,8.40
2023-05-03T05:45:26.199Z,8.40
2023-05-03T05:47:53.717Z,8.40
2023-05-03T05:50:21.497Z,8.40
2023-05-03T05:52:52.809Z,8.40
2023-05-03T05:55:21.484Z,8.40
2023-05-03T05:57:49.008Z,8.40
2023-05-03T06:00:17.711Z,8.40
2023-05-03T06:02:45.967Z,8.40
2023-05-03T06:05:13.636Z,8.40
2023-05-03T06:07:41.145Z,8.40
2023-05-03T06:10:08.988Z,8.40
2023-05-03T06:12:37.230Z,8.40
2023-05-03T06:15:05.881Z,8.40
2023-05-03T06:17:33.718Z,8.40
2023-05-03T06:20:02.219Z,8.50
2023-05-03T06:22:29.989Z,8.40
2023-05-03T06:24:58.087Z,8.40
2023-05-03T06:27:26.050Z,8.50
2023-05-03T06:29:53.782Z,8.50
2023-05-03T06:32:22.288Z,8.50
2023-05-03T06:34:50.876Z,8.50
2023-05-03T06:37:18.740Z,8.50
2023-05-03T06:39:46.668Z,8.50
2023-05-03T06:42:14.402Z,8.50
2023-05-03T06:44:43.356Z,8.60
2023-05-03T06:47:11.225Z,8.60
2023-05-03T06:49:38.778Z,8.60
2023-05-03T06:52:09.423Z,8.60
2023-05-03T06:54:38.513Z,8.60
2023-05-03T06:57:06.160Z,8.60
2023-05-03T06:59:33.657Z,8.60
2023-05-03T07:02:01.182Z,8.70
2023-05-03T07:04:30.277Z,8.70
2023-05-03T07:06:57.806Z,8.70
2023-05-03T07:09:39.309Z,8.80
2023-05-03T07:12:10.679Z,8.70
2023-05-03T07:14:39.924Z,8.80
2023-05-03T07:17:07.664Z,8.80
2023-05-03T07:19:35.464Z,8.80
2023-05-03T07:22:03.645Z,8.80
2023-05-03T07:24:31.144Z,8.80
2023-05-03T07:26:59.264Z,8.80
2023-05-03T07:29:27.785Z,8.80
2023-05-03T07:31:55.535Z,8.80
2023-05-03T07:34:23.106Z,8.80
2023-05-03T07:36:50.699Z,8.80
2023-05-03T07:39:18.829Z,8.80
2023-05-03T07:41:47.193Z,8.80
2023-05-03T07:44:14.703Z,8.80
2023-05-03T07:46:42.303Z,8.80
2023-05-03T07:49:09.842Z,8.80
2023-05-03T07:51:38.589Z,8.90
2023-05-03T07:54:06.555Z,8.90
2023-05-03T07:56:34.262Z,8.90
2023-05-03T08:01:32.415Z,8.90
2023-05-03T08:04:00.104Z,8.90
2023-05-03T08:06:28.482Z,9.00
2023-05-03T08:08:56.070Z,9.00
2023-05-03T08:11:23.590Z,9.00
2023-05-03T08:13:51.167Z,9.00
2023-05-03T08:16:18.750Z,9.00
2023-05-03T08:18:47.263Z,9.00
2023-05-03T08:21:17.048Z,9.00
2023-05-03T08:23:45.299Z,9.00
2023-05-03T08:26:14.393Z,9.00
2023-05-03T08:28:42.561Z,9.00
2023-05-03T08:31:10.294Z,9.00
2023-05-03T08:33:37.879Z,9.00
2023-05-03T08:36:05.839Z,9.00
2023-05-03T08:38:36.902Z,9.00
2023-05-03T08:41:14.911Z,9.00
2023-05-03T08:43:48.792Z,9.00
2023-05-03T08:46:16.551Z,9.00
2023-05-03T08:48:45.365Z,9.00
2023-05-03T08:51:14.172Z,9.00
2023-05-03T08:53:41.869Z,9.00
2023-05-03T08:56:10.452Z,9.10
2023-05-03T08:58:37.985Z,9.00
2023-05-03T09:01:06.758Z,9.00
2023-05-03T09:03:35.194Z,9.00
2023-05-03T09:06:03.692Z,9.10
2023-05-03T09:08:32.741Z,9.00
2023-05-03T09:11:00.308Z,9.10
2023-05-03T09:13:34.526Z,9.00
2023-05-03T09:16:03.214Z,9.00
2023-05-03T09:18:30.953Z,9.00
2023-05-03T09:20:59.262Z,9.10
2023-05-03T09:23:26.744Z,9.10
2023-05-03T09:25:54.450Z,9.10
2023-05-03T09:28:22.074Z,9.10
2023-05-03T09:30:50.771Z,9.10
2023-05-03T09:33:29.293Z,9.10
2023-05-03T09:36:06.342Z,9.10
2023-05-03T09:38:39.490Z,9.10
2023-05-03T09:41:07.206Z,9.20
2023-05-03T09:43:36.257Z,9.20
2023-05-03T09:46:12.509Z,9.20
2023-05-03T09:48:41.274Z,9.20
2023-05-03T09:51:10.108Z,9.20
2023-05-03T09:53:39.511Z,9.30
2023-05-03T09:56:10.288Z,9.40
2023-05-03T09:58:38.666Z,9.40
2023-05-03T10:01:06.853Z,9.40
2023-05-03T10:03:42.451Z,9.40
2023-05-03T10:06:29.233Z,9.50
2023-05-03T10:09:10.985Z,9.50
2023-05-03T10:11:38.671Z,9.50
2023-05-03T10:14:08.018Z,9.50
2023-05-03T10:16:39.427Z,9.50
2023-05-03T10:19:19.050Z,9.50
2023-05-03T10:22:15.953Z,9.50
2023-05-03T10:25:07.585Z,9.50
2023-05-03T10:27:47.271Z,9.50
2023-05-03T10:30:31.489Z,9.50
2023-05-03T10:33:00.564Z,9.50
2023-05-03T10:35:29.821Z,9.60
2023-05-03T10:37:57.966Z,9.60
2023-05-03T10:40:44.658Z,9.60
2023-05-03T10:43:30.647Z,9.60
2023-05-03T10:45:58.175Z,9.60
2023-05-03T10:48:26.820Z,9.60
2023-05-03T10:50:54.933Z,9.60
2023-05-03T10:53:38.552Z,9.70
2023-05-03T10:56:08.564Z,9.70
2023-05-03T10:58:42.826Z,9.70
2023-05-03T11:01:14.416Z,9.70
2023-05-03T11:04:05.937Z,9.70
2023-05-03T11:06:36.293Z,9.70
2023-05-03T11:09:07.036Z,9.70
2023-05-03T11:11:37.908Z,9.80
2023-05-03T11:14:06.283Z,9.80
2023-05-03T11:16:34.072Z,9.80
2023-05-03T11:19:02.971Z,9.90
2023-05-03T11:21:31.395Z,10.00
2023-05-03T11:24:00.004Z,10.00
2023-05-03T11:26:27.840Z,10.10
2023-05-03T11:28:55.458Z,10.10
2023-05-03T11:31:23.370Z,10.20
2023-05-03T11:33:51.609Z,10.20
2023-05-03T11:36:19.152Z,10.20
2023-05-03T11:38:46.726Z,10.20
2023-05-03T11:41:19.200Z,10.20
2023-05-03T11:44:00.506Z,10.30
2023-05-03T11:46:35.972Z,10.30
2023-05-03T11:49:03.929Z,10.30
2023-05-03T11:51:31.713Z,10.30
2023-05-03T11:54:12.824Z,10.30
2023-05-03T11:56:48.719Z,10.30
2023-05-03T11:59:17.326Z,10.30
2023-05-03T12:01:49.652Z,10.30
2023-05-03T12:04:18.358Z,10.30
2023-05-03T12:06:54.027Z,10.30
2023-05-03T12:09:26.013Z,10.30
2023-05-03T12:11:55.314Z,10.30
2023-05-03T12:14:23.482Z,10.30
2023-05-03T12:16:54.074Z,10.30
2023-05-03T12:19:32.774Z,10.40
2023-05-03T12:24:33.368Z,10.40
2023-05-03T12:27:02.856Z,10.40
2023-05-03T12:29:35.415Z,10.40
2023-05-03T12:32:04.995Z,10.70
2023-05-03T12:34:36.352Z,10.90
2023-05-03T12:37:06.221Z,11.10
2023-05-03T12:39:34.614Z,11.20
2023-05-03T12:42:09.434Z,11.30
2023-05-03T12:44:42.747Z,11.40
2023-05-03T12:47:11.504Z,11.40
2023-05-03T12:49:45.821Z,11.40
2023-05-03T12:52:36.192Z,11.50
2023-05-03T12:55:03.894Z,11.60
2023-05-03T12:57:36.838Z,11.60
2023-05-03T13:00:14.705Z,11.70
2023-05-03T13:07:55.601Z,11.80
2023-05-03T13:10:24.940Z,11.80
2023-05-03T13:12:54.245Z,11.80
2023-05-03T13:15:21.696Z,11.90
2023-05-03T13:17:51.521Z,11.90
2023-05-03T13:20:20.524Z,11.90
2023-05-03T13:22:49.599Z,11.90
2023-05-03T13:25:17.213Z,11.90
2023-05-03T13:27:44.787Z,12.00
2023-05-03T13:30:12.491Z,12.00
2023-05-03T13:32:40.002Z,12.00
2023-05-03T13:35:09.800Z,12.00
2023-05-03T13:37:37.402Z,12.00
2023-05-03T13:40:05.678Z,12.10
2023-05-03T13:42:34.630Z,12.10
2023-05-03T13:45:02.419Z,12.10
2023-05-03T13:47:41.890Z,12.10
2023-05-03T13:50:17.744Z,12.10
2023-05-03T13:52:45.578Z,12.20
2023-05-03T13:55:13.149Z,12.20
2023-05-03T13:57:41.223Z,12.20
2023-05-03T14:00:10.416Z,12.20
2023-05-03T14:02:37.948Z,12.30
2023-05-03T14:05:05.912Z,12.30
2023-05-03T14:07:36.619Z,12.40
2023-05-03T14:10:06.408Z,12.40
2023-05-03T14:12:36.997Z,12.40
2023-05-03T14:15:05.835Z,12.40
2023-05-03T14:17:33.706Z,12.40
2023-05-03T14:20:08.319Z,12.40
2023-05-03T14:22:36.022Z,12.50
2023-05-03T14:25:04.072Z,12.50
2023-05-03T14:27:31.516Z,12.40
2023-05-03T14:29:59.006Z,12.50
2023-05-03T14:32:27.326Z,12.50
2023-05-03T14:34:54.950Z,12.50
2023-05-03T14:37:23.012Z,12.50
2023-05-03T14:39:50.561Z,12.50
2023-05-03T14:42:18.053Z,12.50
2023-05-03T14:44:45.571Z,12.50
2023-05-03T14:47:13.087Z,12.50
2023-05-03T14:49:41.708Z,12.50
2023-05-03T14:52:09.418Z,12.50
2023-05-03T14:54:38.156Z,12.50
2023-05-03T14:57:05.760Z,12.60
2023-05-03T14:59:33.983Z,12.50
2023-05-03T15:02:02.138Z,12.50
2023-05-03T15:04:30.002Z,12.50
2023-05-03T15:07:03.960Z,12.50
2023-05-03T15:09:32.081Z,12.60
2023-05-03T15:12:02.004Z,12.60
2023-05-03T15:14:30.262Z,12.60
2023-05-03T15:16:57.754Z,12.60
2023-05-03T15:19:26.887Z,12.60
2023-05-03T15:21:54.482Z,12.70
2023-05-03T15:24:24.735Z,12.70
2023-05-03T15:26:52.287Z,12.70
2023-05-03T15:29:20.107Z,12.70
2023-05-03T15:31:47.726Z,12.70
2023-05-03T15:34:15.542Z,12.80
2023-05-03T15:36:43.103Z,12.80
2023-05-03T15:39:10.623Z,12.80
2023-05-03T15:41:38.126Z,12.80
2023-05-03T15:44:07.515Z,12.80
2023-05-03T15:46:35.491Z,12.80
2023-05-03T15:49:03.311Z,12.80
2023-05-03T15:51:31.829Z,12.80
2023-05-03T15:53:59.952Z,12.80
2023-05-03T15:56:27.935Z,12.80
2023-05-03T15:58:55.859Z,12.80
2023-05-03T16:01:23.758Z,12.80
2023-05-03T16:03:51.829Z,12.80
2023-05-03T16:06:19.607Z,12.80
2023-05-03T16:08:47.234Z,12.80
2023-05-03T16:11:15.277Z,12.80
2023-05-03T16:13:43.329Z,12.80
2023-05-03T16:16:10.830Z,12.80
2023-05-03T16:18:39.941Z,12.80
2023-05-03T16:21:07.663Z,12.80
2023-05-03T16:23:35.319Z,12.80
2023-05-03T16:26:18.303Z,12.80
2023-05-03T16:28:46.484Z,12.80
2023-05-03T16:31:15.713Z,12.80
2023-05-03T16:33:43.855Z,12.80
2023-05-03T16:36:12.393Z,12.80
2023-05-03T16:38:40.892Z,12.80
2023-05-03T16:41:08.903Z,12.80
2023-05-03T16:43:36.745Z,12.80
2023-05-03T16:46:04.872Z,12.80
2023-05-03T16:48:34.934Z,12.80
2023-05-03T16:51:02.652Z,12.80
2023-05-03T16:53:31.590Z,12.80
2023-05-03T16:55:59.426Z,12.80
2023-05-03T16:58:26.901Z,12.80
2023-05-03T17:00:54.505Z,12.80
2023-05-03T17:03:22.426Z,12.70
2023-05-03T17:05:50.133Z,12.70
2023-05-03T17:08:17.842Z,12.70
2023-05-03T17:10:45.535Z,12.70
2023-05-03T17:13:13.530Z,12.70
2023-05-03T17:15:44.067Z,12.70
2023-05-03T17:18:14.483Z,12.70
2023-05-03T17:20:43.215Z,12.60
2023-05-03T17:23:10.757Z,12.60
2023-05-03T17:25:38.302Z,12.70
2023-05-03T17:28:06.029Z,12.60
2023-05-03T17:30:34.907Z,12.60
2023-05-03T17:33:11.671Z,12.60
2023-05-03T17:35:39.215Z,12.60
2023-05-03T17:38:06.774Z,12.60
2023-05-03T17:40:35.318Z,12.60
2023-05-03T17:43:02.933Z,12.60
2023-05-03T17:45:30.517Z,12.60
2023-05-03T17:47:59.006Z,12.50
2023-05-03T17:50:26.559Z,12.50
2023-05-03T17:52:55.206Z,12.50
2023-05-03T17:55:22.857Z,12.50
2023-05-03T17:57:50.430Z,12.50
2023-05-03T18:00:19.392Z,12.50
2023-05-03T18:02:47.159Z,12.50
2023-05-03T18:05:18.539Z,12.50
2023-05-03T18:07:46.641Z,12.50
2023-05-03T18:10:16.615Z,12.40
2023-05-03T18:12:44.731Z,12.50
2023-05-03T18:15:12.585Z,12.40
2023-05-03T18:17:40.204Z,12.40
2023-05-03T18:20:09.141Z,12.40
2023-05-03T18:22:37.764Z,12.40
2023-05-03T18:25:07.793Z,12.40
2023-05-03T18:27:37.830Z,12.40
2023-05-03T18:30:07.132Z,12.40
2023-05-03T18:32:35.282Z,12.40
2023-05-03T18:35:03.825Z,12.30
2023-05-03T18:37:31.425Z,12.30
2023-05-03T18:39:58.983Z,12.30
2023-05-03T18:42:26.699Z,12.30
2023-05-03T18:44:54.551Z,12.30
2023-05-03T18:47:22.185Z,12.30
2023-05-03T18:49:53.237Z,12.20
2023-05-03T18:52:21.254Z,12.30
2023-05-03T18:54:50.031Z,12.20
2023-05-03T18:57:19.042Z,12.20
2023-05-03T18:59:59.408Z,12.20
2023-05-03T19:02:30.951Z,12.20
2023-05-03T19:05:00.427Z,12.20
2023-05-03T19:07:28.324Z,12.10
2023-05-03T19:09:56.675Z,12.20
2023-05-03T19:12:24.313Z,12.10
2023-05-03T19:14:52.222Z,12.10
2023-05-03T19:17:19.795Z,12.10
2023-05-03T19:19:47.269Z,12.10
2023-05-03T19:22:15.071Z,12.10
2023-05-03T19:24:44.149Z,12.10
2023-05-03T19:27:12.118Z,12.00
2023-05-03T19:29:39.837Z,12.00
2023-05-03T19:32:07.446Z,12.00
2023-05-03T19:34:36.624Z,12.00
2023-05-03T19:37:05.316Z,11.70
2023-05-03T19:39:33.090Z,11.20
2023-05-03T19:42:00.647Z,10.80
2023-05-03T19:44:31.089Z,10.60
2023-05-03T19:46:58.548Z,10.60
2023-05-03T19:49:26.159Z,10.90
2023-05-03T19:51:54.262Z,11.10
2023-05-03T19:54:22.673Z,11.30
2023-05-03T19:56:50.557Z,11.30
2023-05-03T19:59:18.481Z,11.40
2023-05-03T20:01:46.056Z,11.40
2023-05-03T20:04:13.806Z,11.40
2023-05-03T20:06:41.736Z,11.50
2023-05-03T20:09:09.524Z,11.50
2023-05-03T20:11:37.079Z,11.50
2023-05-03T20:14:08.438Z,11.50
2023-05-03T20:16:39.365Z,11.50
2023-05-03T20:19:14.835Z,11.50
2023-05-03T20:21:42.469Z,11.50
2023-05-03T20:24:11.155Z,11.50
2023-05-03T20:26:39.087Z,11.40
2023-05-03T20:29:06.632Z,11.40
2023-05-03T20:31:34.255Z,11.40
2023-05-03T20:34:01.818Z,11.40
2023-05-03T20:36:29.482Z,11.40
2023-05-03T20:38:57.086Z,11.40
2023-05-03T20:41:24.691Z,11.40
2023-05-03T20:43:53.727Z,11.40
2023-05-03T20:46:21.466Z,11.40
2023-05-03T20:48:50.288Z,11.40
2023-05-03T20:51:19.176Z,11.30
2023-05-03T20:53:46.809Z,11.30
2023-05-03T20:56:14.303Z,11.30
2023-05-03T20:58:41.859Z,11.30
2023-05-03T21:01:09.377Z,11.30
2023-05-03T21:03:37.163Z,11.30
2023-05-03T21:06:06.991Z,11.20
2023-05-03T21:08:36.145Z,11.20
2023-05-03T21:11:04.490Z,11.20
2023-05-03T21:13:35.931Z,11.20
2023-05-03T21:16:03.888Z,11.20
2023-05-03T21:18:31.413Z,11.20
2023-05-03T21:20:58.972Z,11.10
2023-05-03T21:23:26.472Z,11.10
2023-05-03T21:25:56.116Z,11.10
2023-05-03T21:28:24.059Z,11.10
2023-05-03T21:30:53.768Z,11.10
2023-05-03T21:33:21.750Z,11.10
2023-05-03T21:35:49.210Z,11.10
2023-05-03T21:38:17.923Z,11.00
2023-05-03T21:40:48.460Z,11.00
2023-05-03T21:43:16.102Z,11.00
2023-05-03T21:45:44.454Z,11.00
2023-05-03T21:48:12.944Z,10.90
2023-05-03T21:50:40.720Z,10.90
2023-05-03T21:53:08.292Z,10.90
2023-05-03T21:55:35.807Z,10.90
2023-05-03T21:58:03.351Z,10.90
2023-05-03T22:00:31.952Z,10.90
2023-05-03T22:02:59.555Z,10.80
2023-05-03T22:05:27.140Z,10.80
2023-05-03T22:07:54.655Z,10.80
2023-05-03T22:10:22.162Z,10.80
2023-05-03T22:12:49.799Z,10.80
2023-05-03T22:15:17.761Z,10.70
2023-05-03T22:17:45.280Z,10.70
2023-05-03T22:20:13.103Z,10.70
2023-05-03T22:22:40.649Z,10.70
2023-05-03T22:25:08.515Z,10.70
2023-05-03T22:27:37.032Z,10.70
2023-05-03T22:30:05.036Z,10.60
2023-05-03T22:32:32.837Z,10.60
2023-05-03T22:35:00.333Z,10.60
2023-05-03T22:37:27.812Z,10.60
2023-05-03T22:39:55.285Z,10.60
2023-05-03T22:42:22.785Z,10.50
2023-05-03T22:44:50.305Z,10.50
2023-05-03T22:47:17.945Z,10.50
2023-05-03T22:49:45.474Z,10.50
2023-05-03T22:52:13.129Z,10.50
2023-05-03T22:54:40.760Z,10.40
2023-05-03T22:57:08.311Z,10.40
2023-05-03T22:59:35.905Z,10.40
2023-05-03T23:02:03.489Z,10.40
2023-05-03T23:04:31.060Z,10.40
2023-05-03T23:06:58.561Z,10.30
2023-05-03T23:09:26.083Z,10.30
2023-05-03T23:11:53.550Z,10.30
2023-05-03T23:14:21.163Z,10.30
2023-05-03T23:16:48.677Z,10.20
2023-05-03T23:19:16.431Z,10.20
2023-05-03T23:21:44.284Z,10.20
2023-05-03T23:24:11.817Z,10.20
2023-05-03T23:26:39.276Z,10.20
2023-05-03T23:29:08.778Z,10.10
2023-05-03T23:31:36.999Z,10.10
2023-05-03T23:34:05.348Z,10.10
2023-05-03T23:36:34.333Z,10.10
2023-05-03T23:39:01.865Z,10.10
2023-05-03T23:41:29.444Z,10.00
2023-05-03T23:43:57.170Z,10.00
2023-05-03T23:46:24.695Z,10.00
2023-05-03T23:48:52.211Z,10.00
2023-05-03T23:51:19.721Z,10.00
2023-05-03T23:53:47.386Z,9.90
2023-05-03T23:56:14.887Z,9.90
2023-05-03T23:58:42.392Z,9.90
